Schedule Details


Flight Number: CTN4457
Departure: Brussels National (EBBR) at 20:25
Arrival: Franjo Tudman (LDZA) at 22:15
Route: SPI UL607 PELIX UZ210 LIRSU UZ315 RIDAR UZ738 MUN UM867 VAROB DCT PIKIT DCT ARGOM

Weather Information
EBBR 112120Z 25004KT CAVOK 11/09 Q1011 NOSIG
LDZA 112130Z 23005KT CAVOK 19/12 Q1007 BECMG 24008KT
Schedule Frequency

Route Map